Time;durP1;ratioP1;P1;durP2;ratioP2;P2;SDS_P1;SDS_P2;PMS_P1;PMS_P2;Temp;Humidity;BMP_temperature;BMP_pressure;BME280_temperature;BME280_humidity;BME280_pressure;Samples;Min_cycle;Max_cycle;Signal;HPM_P1;HPM_P2
2022/08/21 00:01:52;;;;;;;;;;;28.00;79.60;;;;;;5051818;28;19924;-58
2022/08/21 00:04:20;;;;;;;;;;;27.90;79.60;;;;;;5044347;28;19929;-57
2022/08/21 00:06:52;;;;;;;;;;;27.90;79.60;;;;;;5037988;28;19929;-57
2022/08/21 00:09:19;;;;;;;;;;;27.90;79.60;;;;;;5045018;28;20012;-59
2022/08/21 00:11:47;;;;;;;;;;;27.90;79.60;;;;;;5034027;28;19929;-57
2022/08/21 00:14:15;;;;;;;;;;;27.90;80.20;;;;;;5037422;28;19929;-55
2022/08/21 00:16:42;;;;;;;;;;;27.90;79.60;;;;;;5046526;28;19929;-57
2022/08/21 00:19:09;;;;;;;;;;;27.90;79.60;;;;;;5034767;28;19932;-53
2022/08/21 00:21:36;;;;;;;;;;;27.90;79.60;;;;;;5037943;28;19929;-56
2022/08/21 00:24:04;;;;;;;;;;;27.90;79.60;;;;;;5043960;28;19929;-59
2022/08/21 00:26:31;;;;;;;;;;;27.90;79.60;;;;;;5048132;28;19935;-56
2022/08/21 00:28:58;;;;;;;;;;;27.90;79.70;;;;;;5052464;28;19925;-57
2022/08/21 00:31:27;;;;;;;;;;;27.90;79.70;;;;;;5052961;28;19939;-58
2022/08/21 00:33:54;;;;;;;;;;;27.90;79.70;;;;;;5048016;28;19948;-57
2022/08/21 00:36:27;;;;;;;;;;;27.90;79.70;;;;;;5040720;28;20408;-58
2022/08/21 00:38:54;;;;;;;;;;;27.90;79.70;;;;;;5041384;28;19929;-58
2022/08/21 00:41:23;;;;;;;;;;;27.90;79.70;;;;;;5051750;28;19929;-58
2022/08/21 00:44:05;;;;;;;;;;;27.90;79.70;;;;;;5062932;28;19930;-58
2022/08/21 00:46:32;;;;;;;;;;;27.90;79.70;;;;;;5046097;28;20000;-59
2022/08/21 00:48:59;;;;;;;;;;;27.90;79.70;;;;;;5034185;28;19925;-59
2022/08/21 00:51:33;;;;;;;;;;;27.90;79.70;;;;;;5048275;28;19936;-58
2022/08/21 00:54:05;;;;;;;;;;;27.90;79.70;;;;;;5034899;28;20369;-57
2022/08/21 00:56:37;;;;;;;;;;;27.80;79.60;;;;;;5050734;28;19932;-55
2022/08/21 00:59:08;;;;;;;;;;;27.90;79.70;;;;;;5029786;28;19926;-58
2022/08/21 01:01:35;;;;;;;;;;;27.80;79.70;;;;;;5055877;28;19937;-56
2022/08/21 01:04:02;;;;;;;;;;;27.90;79.70;;;;;;5063718;28;19928;-56
2022/08/21 01:06:30;;;;;;;;;;;27.80;79.70;;;;;;5061445;28;19959;-55
2022/08/21 01:08:57;;;;;;;;;;;27.80;79.70;;;;;;5031298;28;20092;-56
2022/08/21 01:11:24;;;;;;;;;;;27.80;79.70;;;;;;5057852;28;19929;-57
2022/08/21 01:13:52;;;;;;;;;;;27.80;79.70;;;;;;5051057;28;19936;-57
2022/08/21 01:16:21;;;;;;;;;;;27.80;79.70;;;;;;5055882;28;19925;-55
2022/08/21 01:18:48;;;;;;;;;;;27.80;79.70;;;;;;5045193;28;19929;-56
2022/08/21 01:21:17;;;;;;;;;;;27.80;79.70;;;;;;5052391;28;19933;-56
2022/08/21 01:23:46;;;;;;;;;;;27.80;79.70;;;;;;5043965;28;19939;-57
2022/08/21 01:26:15;;;;;;;;;;;27.80;80.30;;;;;;5048073;28;19925;-57
2022/08/21 01:28:52;;;;;;;;;;;27.80;79.70;;;;;;5037067;28;19924;-57
2022/08/21 01:31:21;;;;;;;;;;;27.80;79.70;;;;;;5047167;28;20340;-54
2022/08/21 01:33:53;;;;;;;;;;;27.80;79.80;;;;;;5034381;28;19929;-57
2022/08/21 01:36:20;;;;;;;;;;;27.80;79.80;;;;;;5055912;28;19937;-56
2022/08/21 01:38:47;;;;;;;;;;;27.70;79.70;;;;;;5039806;28;19929;-58
2022/08/21 01:41:15;;;;;;;;;;;27.80;79.80;;;;;;5052942;28;19929;-56
2022/08/21 01:43:42;;;;;;;;;;;27.70;79.70;;;;;;5047472;28;19928;-57
2022/08/21 01:46:10;;;;;;;;;;;27.80;79.80;;;;;;5049453;28;19936;-57
2022/08/21 01:48:38;;;;;;;;;;;27.70;79.70;;;;;;5048503;28;19924;-56
2022/08/21 01:51:07;;;;;;;;;;;27.70;79.70;;;;;;5049894;28;19932;-56
2022/08/21 01:53:36;;;;;;;;;;;27.70;79.70;;;;;;5030658;28;20316;-57
2022/08/21 01:56:08;;;;;;;;;;;27.70;79.70;;;;;;5052471;28;19929;-57
2022/08/21 01:58:40;;;;;;;;;;;27.70;79.70;;;;;;5049898;28;19935;-57
2022/08/21 02:01:07;;;;;;;;;;;27.70;79.80;;;;;;5055579;28;19933;-58
2022/08/21 02:03:34;;;;;;;;;;;27.70;79.80;;;;;;5034928;28;19929;-60
2022/08/21 02:06:06;;;;;;;;;;;27.70;79.80;;;;;;5052701;28;19935;-59
2022/08/21 02:08:34;;;;;;;;;;;27.70;79.80;;;;;;5041987;28;19928;-56
2022/08/21 02:11:01;;;;;;;;;;;27.70;79.80;;;;;;5051511;28;20396;-59
2022/08/21 02:13:28;;;;;;;;;;;27.70;79.80;;;;;;5033360;28;19933;-56
2022/08/21 02:15:55;;;;;;;;;;;27.70;79.80;;;;;;5042908;28;19929;-57
2022/08/21 02:18:23;;;;;;;;;;;27.70;79.80;;;;;;5033228;28;19936;-56
2022/08/21 02:20:50;;;;;;;;;;;27.70;79.80;;;;;;5044059;28;19939;-57
2022/08/21 02:23:23;;;;;;;;;;;27.70;79.80;;;;;;5032522;28;19941;-59
2022/08/21 02:25:54;;;;;;;;;;;27.60;79.80;;;;;;5033698;28;19925;-57
2022/08/21 02:28:21;;;;;;;;;;;27.60;79.80;;;;;;5032471;28;19929;-56
2022/08/21 02:30:49;;;;;;;;;;;27.60;79.80;;;;;;5046518;28;19955;-57
2022/08/21 02:33:18;;;;;;;;;;;27.60;79.80;;;;;;5042418;28;20252;-58
2022/08/21 02:35:46;;;;;;;;;;;27.60;79.80;;;;;;5044649;28;19933;-58
2022/08/21 02:38:15;;;;;;;;;;;27.60;79.80;;;;;;5028163;28;19925;-57
2022/08/21 02:40:43;;;;;;;;;;;27.60;79.80;;;;;;5030768;28;19936;-58
2022/08/21 02:43:15;;;;;;;;;;;27.60;79.80;;;;;;5051487;28;19924;-58
2022/08/21 02:45:43;;;;;;;;;;;27.60;80.50;;;;;;5050680;28;19936;-55
2022/08/21 02:48:12;;;;;;;;;;;27.60;79.90;;;;;;5044683;28;19929;-58
2022/08/21 02:50:44;;;;;;;;;;;27.60;79.90;;;;;;5057172;28;19929;-58
2022/08/21 02:53:16;;;;;;;;;;;27.60;79.90;;;;;;5048042;28;19936;-59
2022/08/21 02:55:44;;;;;;;;;;;27.60;79.90;;;;;;5050372;28;19931;-56
2022/08/21 02:58:12;;;;;;;;;;;27.60;79.90;;;;;;5045116;28;19937;-58
2022/08/21 03:00:41;;;;;;;;;;;27.60;79.90;;;;;;5051504;28;19935;-57
2022/08/21 03:03:09;;;;;;;;;;;27.60;79.90;;;;;;5044773;28;19925;-56
2022/08/21 03:05:37;;;;;;;;;;;27.50;79.80;;;;;;5052137;28;20007;-57
2022/08/21 03:08:09;;;;;;;;;;;27.60;79.90;;;;;;5043909;28;19925;-57
2022/08/21 03:10:41;;;;;;;;;;;27.50;79.80;;;;;;5052196;28;20276;-57
2022/08/21 03:13:08;;;;;;;;;;;27.50;79.90;;;;;;5035296;28;20474;-57
2022/08/21 03:15:35;;;;;;;;;;;27.50;79.90;;;;;;5038236;28;19935;-58
2022/08/21 03:18:05;;;;;;;;;;;27.50;79.80;;;;;;5037870;28;20285;-57
2022/08/21 03:20:33;;;;;;;;;;;27.50;79.80;;;;;;5024791;28;19929;-57
2022/08/21 03:23:00;;;;;;;;;;;27.50;79.80;;;;;;5041164;28;19936;-58
2022/08/21 03:25:28;;;;;;;;;;;27.50;79.90;;;;;;5032250;28;19933;-56
2022/08/21 03:28:09;;;;;;;;;;;27.50;79.90;;;;;;5039179;28;19935;-57
2022/08/21 03:30:45;;;;;;;;;;;27.50;79.90;;;;;;5032080;28;19929;-57
2022/08/21 03:33:13;;;;;;;;;;;27.50;79.90;;;;;;5047531;28;19930;-56
2022/08/21 03:35:42;;;;;;;;;;;27.50;79.90;;;;;;5044657;28;19929;-58
2022/08/21 03:38:12;;;;;;;;;;;27.50;79.90;;;;;;5029682;28;19944;-57
2022/08/21 03:40:40;;;;;;;;;;;27.50;79.90;;;;;;5036173;28;19936;-56
2022/08/21 03:43:09;;;;;;;;;;;27.50;79.90;;;;;;5048532;28;20554;-58
2022/08/21 03:45:37;;;;;;;;;;;27.40;79.90;;;;;;5055245;28;19944;-56
2022/08/21 03:48:05;;;;;;;;;;;27.40;79.90;;;;;;5029367;28;19940;-58
2022/08/21 03:50:35;;;;;;;;;;;27.40;79.90;;;;;;5029137;28;19929;-57
2022/08/21 03:53:08;;;;;;;;;;;27.50;80.00;;;;;;5048718;28;19944;-58
2022/08/21 03:55:45;;;;;;;;;;;27.40;79.90;;;;;;5033468;28;19929;-56
2022/08/21 03:58:13;;;;;;;;;;;27.50;80.00;;;;;;5039724;28;20335;-57
2022/08/21 04:00:43;;;;;;;;;;;27.40;80.50;;;;;;5049050;28;19939;-57
2022/08/21 04:03:11;;;;;;;;;;;27.40;79.90;;;;;;5043624;28;19964;-58
2022/08/21 04:05:38;;;;;;;;;;;27.40;80.00;;;;;;5043746;28;19935;-57
2022/08/21 04:08:05;;;;;;;;;;;27.40;80.00;;;;;;5050709;28;19935;-56
2022/08/21 04:10:34;;;;;;;;;;;27.40;79.90;;;;;;5041024;28;19935;-58
2022/08/21 04:13:02;;;;;;;;;;;27.40;80.00;;;;;;5044592;28;19936;-58
2022/08/21 04:15:29;;;;;;;;;;;27.40;80.00;;;;;;5037327;28;19940;-59
2022/08/21 04:17:56;;;;;;;;;;;27.40;80.00;;;;;;5038965;28;19933;-56
2022/08/21 04:20:24;;;;;;;;;;;27.40;80.00;;;;;;5047609;28;19929;-55
2022/08/21 04:22:52;;;;;;;;;;;27.40;80.00;;;;;;5045687;28;19929;-58
2022/08/21 04:25:21;;;;;;;;;;;27.40;80.00;;;;;;5042733;28;19932;-57
2022/08/21 04:27:48;;;;;;;;;;;27.40;80.00;;;;;;5034132;28;19940;-57
2022/08/21 04:30:16;;;;;;;;;;;27.30;80.00;;;;;;5033108;28;19933;-58
2022/08/21 04:32:47;;;;;;;;;;;27.30;80.00;;;;;;5049578;28;19944;-58
2022/08/21 04:35:23;;;;;;;;;;;27.30;80.00;;;;;;5035627;28;19936;-58
2022/08/21 04:37:50;;;;;;;;;;;27.40;80.00;;;;;;5044238;28;19936;-58
2022/08/21 04:40:18;;;;;;;;;;;27.30;80.00;;;;;;5034558;28;19959;-58
2022/08/21 04:42:49;;;;;;;;;;;27.30;80.00;;;;;;5053200;28;19929;-55
2022/08/21 04:45:20;;;;;;;;;;;27.30;80.00;;;;;;5060767;28;19929;-58
2022/08/21 04:47:54;;;;;;;;;;;27.30;80.00;;;;;;5052460;28;19929;-56
2022/08/21 04:50:24;;;;;;;;;;;27.30;80.00;;;;;;5035442;28;19936;-54
2022/08/21 04:53:04;;;;;;;;;;;27.30;80.00;;;;;;5053874;28;19929;-57
2022/08/21 04:55:31;;;;;;;;;;;27.30;80.00;;;;;;5052775;28;19935;-57
2022/08/21 04:57:59;;;;;;;;;;;27.30;80.10;;;;;;5050963;28;19929;-58
2022/08/21 05:00:26;;;;;;;;;;;27.30;80.10;;;;;;5045074;28;19929;-58
2022/08/21 05:02:58;;;;;;;;;;;27.30;80.10;;;;;;5041348;28;19933;-58
2022/08/21 05:05:28;;;;;;;;;;;27.30;80.10;;;;;;5047506;28;19929;-59
2022/08/21 05:07:56;;;;;;;;;;;27.30;80.00;;;;;;5057958;28;19924;-56
2022/08/21 05:10:25;;;;;;;;;;;27.30;80.10;;;;;;5049720;28;19929;-58
2022/08/21 05:12:53;;;;;;;;;;;27.30;80.10;;;;;;5047869;28;19940;-58
2022/08/21 05:15:20;;;;;;;;;;;27.30;80.10;;;;;;5050885;28;19929;-56
2022/08/21 05:17:47;;;;;;;;;;;27.30;80.10;;;;;;5055728;28;19936;-57
2022/08/21 05:20:26;;;;;;;;;;;27.20;80.00;;;;;;5041882;28;20145;-58
2022/08/21 05:22:53;;;;;;;;;;;27.30;80.10;;;;;;5053382;28;20273;-59
2022/08/21 05:25:20;;;;;;;;;;;27.30;80.10;;;;;;5041247;28;19936;-56
2022/08/21 05:27:49;;;;;;;;;;;27.30;80.10;;;;;;5055704;22;19929;-53
2022/08/21 05:30:19;;;;;;;;;;;27.20;80.00;;;;;;5046601;28;19929;-52
2022/08/21 05:32:47;;;;;;;;;;;27.30;80.10;;;;;;5040390;28;20367;-53
2022/08/21 05:35:14;;;;;;;;;;;27.30;80.10;;;;;;5029704;28;19932;-50
2022/08/21 05:37:41;;;;;;;;;;;27.30;80.10;;;;;;5030114;28;19936;-52
2022/08/21 05:40:09;;;;;;;;;;;27.20;80.00;;;;;;5036258;28;19943;-53
2022/08/21 05:42:53;;;;;;;;;;;27.30;80.10;;;;;;5045782;28;19925;-53
2022/08/21 05:45:23;;;;;;;;;;;27.30;80.10;;;;;;5034085;28;19929;-51
2022/08/21 05:48:29;;;;;;;;;;;27.30;80.10;;;;;;5031449;28;19929;-52
2022/08/21 05:50:57;;;;;;;;;;;27.30;80.10;;;;;;5043391;28;19935;-57
2022/08/21 05:53:24;;;;;;;;;;;27.30;80.10;;;;;;5031019;28;19936;-52
2022/08/21 05:55:51;;;;;;;;;;;27.30;80.00;;;;;;5022419;28;19936;-57
2022/08/21 05:58:19;;;;;;;;;;;27.30;80.10;;;;;;5040741;28;19952;-57
2022/08/21 06:00:47;;;;;;;;;;;27.30;80.00;;;;;;5029158;28;19933;-55
2022/08/21 06:03:17;;;;;;;;;;;27.30;80.00;;;;;;5039212;28;19929;-56
2022/08/21 06:05:45;;;;;;;;;;;27.30;80.00;;;;;;5024274;28;19929;-54
2022/08/21 06:08:13;;;;;;;;;;;27.30;80.00;;;;;;5040329;28;19928;-56
2022/08/21 06:10:40;;;;;;;;;;;27.30;80.00;;;;;;5032505;28;19933;-56
2022/08/21 06:13:07;;;;;;;;;;;27.30;80.00;;;;;;5033015;28;19933;-54
2022/08/21 06:15:35;;;;;;;;;;;27.30;80.00;;;;;;5033502;28;19929;-56
2022/08/21 06:18:02;;;;;;;;;;;27.30;80.10;;;;;;5031016;28;19944;-56
2022/08/21 06:20:29;;;;;;;;;;;27.30;80.00;;;;;;5039183;28;19932;-55
2022/08/21 06:22:56;;;;;;;;;;;27.30;80.10;;;;;;5037312;28;19929;-56
2022/08/21 06:25:24;;;;;;;;;;;27.30;80.10;;;;;;5038370;28;19933;-53
2022/08/21 06:27:51;;;;;;;;;;;27.30;80.10;;;;;;5026359;28;19940;-52
2022/08/21 06:30:18;;;;;;;;;;;27.30;80.10;;;;;;5044233;28;19929;-50
2022/08/21 06:32:45;;;;;;;;;;;27.30;80.10;;;;;;5032620;28;19936;-57
2022/08/21 06:35:12;;;;;;;;;;;27.20;80.00;;;;;;5029057;28;19925;-60
2022/08/21 06:37:40;;;;;;;;;;;27.20;80.10;;;;;;5043289;28;19933;-58
2022/08/21 06:40:07;;;;;;;;;;;27.20;80.10;;;;;;5022019;28;19926;-56
2022/08/21 06:42:39;;;;;;;;;;;27.20;80.10;;;;;;5025393;28;19929;-53
2022/08/21 06:45:09;;;;;;;;;;;27.20;80.00;;;;;;5029557;28;19929;-50
2022/08/21 06:47:37;;;;;;;;;;;27.20;80.10;;;;;;5046856;28;19929;-58
2022/08/21 06:50:04;;;;;;;;;;;27.20;80.00;;;;;;5038531;28;19931;-56
2022/08/21 06:52:31;;;;;;;;;;;27.20;80.10;;;;;;5049258;28;19928;-56
2022/08/21 06:54:58;;;;;;;;;;;27.30;80.10;;;;;;5027226;28;19950;-53
2022/08/21 06:57:26;;;;;;;;;;;27.20;80.10;;;;;;5031432;28;19936;-53
2022/08/21 06:59:53;;;;;;;;;;;27.20;80.10;;;;;;5031074;28;19925;-58
2022/08/21 07:02:20;;;;;;;;;;;27.20;80.10;;;;;;5039104;28;19929;-59
2022/08/21 07:04:47;;;;;;;;;;;27.30;80.20;;;;;;5039513;28;19925;-56
2022/08/21 07:07:14;;;;;;;;;;;27.30;80.20;;;;;;5036475;28;19932;-54
2022/08/21 07:09:41;;;;;;;;;;;27.30;80.20;;;;;;5024578;28;19933;-56
2022/08/21 07:12:09;;;;;;;;;;;27.30;80.20;;;;;;5033529;28;19925;-56
2022/08/21 07:14:36;;;;;;;;;;;27.30;80.20;;;;;;5023051;28;19928;-55
2022/08/21 07:17:03;;;;;;;;;;;27.30;80.20;;;;;;5032247;28;19930;-53
2022/08/21 07:19:30;;;;;;;;;;;27.30;80.20;;;;;;5031175;28;19948;-56
2022/08/21 07:22:00;;;;;;;;;;;27.40;80.30;;;;;;5029068;28;20732;-59
2022/08/21 07:24:28;;;;;;;;;;;27.30;80.30;;;;;;5035613;28;19933;-55
2022/08/21 07:26:55;;;;;;;;;;;27.30;80.30;;;;;;5022727;28;19929;-57
2022/08/21 07:29:22;;;;;;;;;;;27.30;80.30;;;;;;5022227;28;19930;-55
2022/08/21 07:31:49;;;;;;;;;;;27.30;80.30;;;;;;5024738;28;19925;-57
2022/08/21 07:34:16;;;;;;;;;;;27.30;80.30;;;;;;5035512;28;20419;-55
2022/08/21 07:36:43;;;;;;;;;;;27.40;80.40;;;;;;5032817;28;19925;-57
2022/08/21 07:39:11;;;;;;;;;;;27.40;80.40;;;;;;5027625;28;19929;-54
2022/08/21 07:41:38;;;;;;;;;;;27.40;80.40;;;;;;5033226;28;19925;-53
2022/08/21 07:44:05;;;;;;;;;;;27.40;80.50;;;;;;5032218;28;19936;-53
2022/08/21 07:46:32;;;;;;;;;;;27.40;80.50;;;;;;5035769;28;19935;-56
2022/08/21 07:48:59;;;;;;;;;;;27.40;80.50;;;;;;5034467;28;20300;-57
2022/08/21 07:51:27;;;;;;;;;;;27.40;80.50;;;;;;5035180;28;19929;-53
2022/08/21 07:53:55;;;;;;;;;;;27.40;80.50;;;;;;5041089;28;20319;-56
2022/08/21 07:56:23;;;;;;;;;;;27.40;80.50;;;;;;5024651;28;19925;-53
2022/08/21 07:58:50;;;;;;;;;;;27.40;80.50;;;;;;5033077;28;19947;-59
2022/08/21 08:01:17;;;;;;;;;;;27.40;80.50;;;;;;5030599;28;19925;-54
2022/08/21 08:03:45;;;;;;;;;;;27.40;80.50;;;;;;5033331;28;19929;-53
2022/08/21 08:06:12;;;;;;;;;;;27.50;80.60;;;;;;5037735;28;19933;-56
2022/08/21 08:08:40;;;;;;;;;;;27.40;80.50;;;;;;5034166;28;19929;-56
2022/08/21 08:11:10;;;;;;;;;;;27.50;80.60;;;;;;5037733;28;19925;-58
2022/08/21 08:13:38;;;;;;;;;;;27.50;80.60;;;;;;5024140;28;19924;-57
2022/08/21 08:16:05;;;;;;;;;;;27.50;80.60;;;;;;5039328;28;19929;-51
2022/08/21 08:18:32;;;;;;;;;;;27.40;80.70;;;;;;5026225;28;20400;-51
2022/08/21 08:20:59;;;;;;;;;;;27.40;80.60;;;;;;5032362;28;20202;-52
2022/08/21 08:23:27;;;;;;;;;;;27.50;80.70;;;;;;5027600;28;20367;-57
2022/08/21 08:25:54;;;;;;;;;;;27.50;80.70;;;;;;5029687;28;20396;-53
2022/08/21 08:28:21;;;;;;;;;;;27.50;80.70;;;;;;5035622;28;19993;-52
2022/08/21 08:30:49;;;;;;;;;;;27.50;80.70;;;;;;5042461;28;19929;-52
2022/08/21 08:33:16;;;;;;;;;;;27.50;80.70;;;;;;5035074;28;19929;-53
2022/08/21 08:35:44;;;;;;;;;;;27.50;80.70;;;;;;5021085;28;19932;-53
2022/08/21 08:38:12;;;;;;;;;;;27.50;80.70;;;;;;5024477;28;19934;-51
2022/08/21 08:40:43;;;;;;;;;;;27.50;80.70;;;;;;5051099;28;19928;-55
2022/08/21 08:43:11;;;;;;;;;;;27.50;80.70;;;;;;5030035;28;20320;-55
2022/08/21 08:45:44;;;;;;;;;;;27.50;80.70;;;;;;5038806;28;19931;-52
2022/08/21 08:48:14;;;;;;;;;;;27.50;81.30;;;;;;5029651;28;19929;-56
2022/08/21 08:50:46;;;;;;;;;;;27.50;80.70;;;;;;5027163;28;19936;-55
2022/08/21 08:53:25;;;;;;;;;;;27.50;80.70;;;;;;5027319;28;19931;-50
2022/08/21 08:55:52;;;;;;;;;;;27.50;80.80;;;;;;5032621;28;20009;-58
2022/08/21 08:58:23;;;;;;;;;;;27.50;80.70;;;;;;5024086;28;19929;-54
2022/08/21 09:00:51;;;;;;;;;;;27.50;80.80;;;;;;5033501;28;19929;-54
2022/08/21 09:03:20;;;;;;;;;;;27.50;80.80;;;;;;5036204;28;20373;-55
2022/08/21 09:06:08;;;;;;;;;;;27.50;80.80;;;;;;5027064;28;19947;-53
2022/08/21 09:08:48;;;;;;;;;;;27.50;80.80;;;;;;5025932;28;19936;-55
2022/08/21 09:11:22;;;;;;;;;;;27.50;80.70;;;;;;5029391;28;19929;-48
2022/08/21 09:14:03;;;;;;;;;;;27.50;80.80;;;;;;5027547;28;19943;-53
2022/08/21 09:16:38;;;;;;;;;;;27.50;80.80;;;;;;5035075;28;20293;-50
2022/08/21 09:19:25;;;;;;;;;;;27.50;80.80;;;;;;5040915;28;20199;-54
2022/08/21 09:21:52;;;;;;;;;;;27.50;80.80;;;;;;5031580;28;19952;-58
2022/08/21 09:24:19;;;;;;;;;;;27.50;80.80;;;;;;5030538;28;19933;-56
2022/08/21 09:27:05;;;;;;;;;;;27.50;80.80;;;;;;5036232;28;19928;-54
2022/08/21 09:29:34;;;;;;;;;;;27.50;80.80;;;;;;5036381;28;19979;-53
2022/08/21 09:32:03;;;;;;;;;;;27.50;80.80;;;;;;5037587;28;19929;-51
2022/08/21 09:34:31;;;;;;;;;;;27.50;80.80;;;;;;5032591;28;19929;-52
2022/08/21 09:36:59;;;;;;;;;;;27.50;80.80;;;;;;5034797;28;19935;-50
2022/08/21 09:39:28;;;;;;;;;;;27.50;80.70;;;;;;5031400;28;20335;-54
2022/08/21 09:42:00;;;;;;;;;;;27.60;80.80;;;;;;5040160;28;19929;-54
2022/08/21 09:44:29;;;;;;;;;;;27.50;80.70;;;;;;5043258;28;20397;-59
2022/08/21 09:46:56;;;;;;;;;;;27.60;80.80;;;;;;5042290;28;20437;-59
2022/08/21 09:49:27;;;;;;;;;;;27.50;80.70;;;;;;5021860;28;19925;-55
2022/08/21 09:51:55;;;;;;;;;;;27.60;80.80;;;;;;5039964;28;20396;-52
2022/08/21 09:54:25;;;;;;;;;;;27.60;80.80;;;;;;5032481;28;20028;-54
2022/08/21 09:59:46;;;;;;;;;;;27.60;80.80;;;;;;5028051;28;19925;-55
2022/08/21 10:02:26;;;;;;;;;;;27.60;80.80;;;;;;5039439;28;19933;-52
2022/08/21 10:04:55;;;;;;;;;;;27.60;80.80;;;;;;5039545;28;19969;-59
2022/08/21 10:07:23;;;;;;;;;;;27.60;80.80;;;;;;5036539;28;19942;-58
2022/08/21 10:10:02;;;;;;;;;;;27.60;80.80;;;;;;5040609;28;19960;-59
2022/08/21 10:12:42;;;;;;;;;;;27.60;80.80;;;;;;5035784;28;19936;-55
2022/08/21 10:15:27;;;;;;;;;;;27.60;80.80;;;;;;5020767;28;20383;-54
2022/08/21 10:18:01;;;;;;;;;;;27.60;80.80;;;;;;5022204;28;19930;-55
2022/08/21 10:20:40;;;;;;;;;;;27.60;80.80;;;;;;5041680;28;20400;-53
2022/08/21 10:23:26;;;;;;;;;;;27.60;80.80;;;;;;5036188;28;20313;-57
2022/08/21 10:25:53;;;;;;;;;;;27.60;80.80;;;;;;5045697;28;19929;-53
2022/08/21 10:28:51;;;;;;;;;;;27.60;80.80;;;;;;5020785;28;20324;-50
2022/08/21 10:31:41;;;;;;;;;;;27.60;80.80;;;;;;5041677;28;19928;-52
2022/08/21 10:34:20;;;;;;;;;;;27.60;80.80;;;;;;5035756;28;20285;-51
2022/08/21 10:36:50;;;;;;;;;;;27.60;80.80;;;;;;5038071;28;20320;-51
2022/08/21 10:39:33;;;;;;;;;;;27.60;80.90;;;;;;5031272;28;19948;-56
2022/08/21 10:42:20;;;;;;;;;;;27.60;80.80;;;;;;5025510;28;19925;-52
2022/08/21 10:45:14;;;;;;;;;;;27.60;80.90;;;;;;5037803;28;19929;-51
2022/08/21 10:47:48;;;;;;;;;;;27.60;80.80;;;;;;5032191;28;19936;-57
2022/08/21 10:50:25;;;;;;;;;;;27.60;80.80;;;;;;5042736;28;19928;-54
2022/08/21 10:52:55;;;;;;;;;;;27.60;80.90;;;;;;5021431;28;19933;-56
2022/08/21 10:55:27;;;;;;;;;;;27.60;80.80;;;;;;5027200;28;20385;-52
2022/08/21 10:57:57;;;;;;;;;;;27.60;80.80;;;;;;5033503;28;19933;-46
2022/08/21 11:00:38;;;;;;;;;;;27.60;80.80;;;;;;5032065;28;20400;-57
2022/08/21 11:03:05;;;;;;;;;;;27.60;80.80;;;;;;5028332;28;19929;-55
2022/08/21 11:05:41;;;;;;;;;;;27.60;80.80;;;;;;5034358;28;19932;-54
2022/08/21 11:08:22;;;;;;;;;;;27.60;80.80;;;;;;5039273;28;21446;-55
2022/08/21 11:10:55;;;;;;;;;;;27.60;80.80;;;;;;5023770;28;19929;-56
2022/08/21 11:13:28;;;;;;;;;;;27.60;80.80;;;;;;5021556;28;19929;-57
2022/08/21 11:16:05;;;;;;;;;;;27.60;80.90;;;;;;5029211;28;19928;-51
2022/08/21 11:18:33;;;;;;;;;;;27.60;80.90;;;;;;5034513;28;19925;-47
2022/08/21 11:21:26;;;;;;;;;;;27.60;80.80;;;;;;5029313;28;19933;-53
2022/08/21 11:24:03;;;;;;;;;;;27.60;81.50;;;;;;5018410;28;19925;-52
2022/08/21 11:26:32;;;;;;;;;;;27.60;80.90;;;;;;5040379;28;19929;-55
2022/08/21 11:29:04;;;;;;;;;;;27.60;80.90;;;;;;5056113;22;19925;-59
2022/08/21 11:31:39;;;;;;;;;;;27.60;81.50;;;;;;5049561;28;20133;-64
2022/08/21 11:34:30;;;;;;;;;;;27.60;80.80;;;;;;5036691;28;19929;-62
2022/08/21 11:37:18;;;;;;;;;;;27.60;80.80;;;;;;5055957;28;19928;-62
2022/08/21 11:40:04;;;;;;;;;;;27.60;80.80;;;;;;5021293;28;19929;-63
2022/08/21 11:42:40;;;;;;;;;;;27.60;80.80;;;;;;5028591;28;19941;-59
2022/08/21 11:45:22;;;;;;;;;;;27.60;80.80;;;;;;5009653;28;19926;-62
2022/08/21 11:48:00;;;;;;;;;;;27.60;80.80;;;;;;5019037;28;19937;-62
2022/08/21 11:50:28;;;;;;;;;;;27.60;80.80;;;;;;5030660;28;19934;-61
2022/08/21 11:53:10;;;;;;;;;;;27.60;80.80;;;;;;5022814;28;19932;-60
2022/08/21 11:55:56;;;;;;;;;;;27.60;81.40;;;;;;5021390;28;19925;-62
2022/08/21 11:58:26;;;;;;;;;;;27.60;80.80;;;;;;5019631;28;19926;-60
2022/08/21 12:00:59;;;;;;;;;;;27.60;80.80;;;;;;5029941;28;19932;-63
2022/08/21 12:03:32;;;;;;;;;;;27.60;81.30;;;;;;5029970;28;19936;-62
2022/08/21 12:06:01;;;;;;;;;;;27.60;81.30;;;;;;5026058;28;19937;-61
2022/08/21 12:08:33;;;;;;;;;;;27.60;80.70;;;;;;5017340;28;19937;-63
2022/08/21 12:11:04;;;;;;;;;;;27.60;80.70;;;;;;5018408;28;19936;-61
2022/08/21 12:13:33;;;;;;;;;;;27.60;80.70;;;;;;5012317;28;19929;-62
2022/08/21 12:16:08;;;;;;;;;;;27.60;80.60;;;;;;5029493;28;19929;-60
2022/08/21 12:18:37;;;;;;;;;;;27.60;80.60;;;;;;5005693;28;19929;-61
2022/08/21 12:21:20;;;;;;;;;;;27.70;80.70;;;;;;5022384;28;19925;-61
2022/08/21 12:23:49;;;;;;;;;;;27.60;80.60;;;;;;5012671;28;19948;-61
2022/08/21 12:26:24;;;;;;;;;;;27.60;80.60;;;;;;5013535;28;19936;-62
2022/08/21 12:29:03;;;;;;;;;;;27.60;80.60;;;;;;5034303;28;19930;-61
2022/08/21 12:31:30;;;;;;;;;;;27.60;80.60;;;;;;5003371;28;20309;-60
2022/08/21 12:33:59;;;;;;;;;;;27.70;80.60;;;;;;5016185;28;19940;-61
2022/08/21 12:36:37;;;;;;;;;;;27.70;81.20;;;;;;5008882;28;19937;-59
2022/08/21 12:39:10;;;;;;;;;;;27.60;80.60;;;;;;5018665;28;19940;-62
2022/08/21 12:41:45;;;;;;;;;;;27.60;80.60;;;;;;5014768;28;19933;-60
2022/08/21 12:44:14;;;;;;;;;;;27.60;80.60;;;;;;5023133;28;19945;-57
2022/08/21 12:46:59;;;;;;;;;;;27.70;80.70;;;;;;5005439;28;20328;-61
2022/08/21 12:49:35;;;;;;;;;;;27.60;80.60;;;;;;5035465;28;20405;-59
2022/08/21 12:52:23;;;;;;;;;;;27.70;80.60;;;;;;5028361;28;19929;-59
2022/08/21 12:54:51;;;;;;;;;;;27.70;80.50;;;;;;5019926;28;19936;-58
2022/08/21 12:57:20;;;;;;;;;;;27.70;80.50;;;;;;5018274;28;20594;-61
2022/08/21 12:59:51;;;;;;;;;;;27.70;80.50;;;;;;5019290;28;19959;-59
2022/08/21 13:02:21;;;;;;;;;;;27.80;80.50;;;;;;5019241;28;19933;-60
2022/08/21 13:04:49;;;;;;;;;;;27.70;80.40;;;;;;5013847;28;19940;-61
2022/08/21 13:07:24;;;;;;;;;;;27.80;80.40;;;;;;5042560;28;19940;-61
2022/08/21 13:09:57;;;;;;;;;;;27.80;80.30;;;;;;5006169;28;19929;-61
2022/08/21 13:12:25;;;;;;;;;;;27.80;80.30;;;;;;5002473;28;20368;-59
2022/08/21 13:15:00;;;;;;;;;;;27.80;80.30;;;;;;5024986;28;19929;-59
2022/08/21 13:17:31;;;;;;;;;;;27.90;80.30;;;;;;5027913;28;20316;-62
2022/08/21 13:19:59;;;;;;;;;;;27.90;80.30;;;;;;5021939;28;19940;-59
2022/08/21 13:22:27;;;;;;;;;;;27.90;80.20;;;;;;5021624;28;20201;-61
2022/08/21 13:25:01;;;;;;;;;;;27.90;80.20;;;;;;5009891;28;19929;-59
2022/08/21 13:27:33;;;;;;;;;;;28.00;80.30;;;;;;5003828;28;19930;-60
2022/08/21 13:30:06;;;;;;;;;;;28.00;80.20;;;;;;5020315;28;20366;-60
2022/08/21 13:32:35;;;;;;;;;;;28.00;80.10;;;;;;5023082;28;19936;-56
2022/08/21 13:35:11;;;;;;;;;;;28.00;80.10;;;;;;5011367;28;19941;-59
2022/08/21 13:37:40;;;;;;;;;;;28.00;80.10;;;;;;5010000;28;19925;-58
2022/08/21 13:40:10;;;;;;;;;;;28.00;80.10;;;;;;5013139;28;19925;-55
2022/08/21 13:42:39;;;;;;;;;;;28.10;80.10;;;;;;5023384;28;19926;-60
2022/08/21 13:45:12;;;;;;;;;;;28.00;80.00;;;;;;5006828;28;20324;-61
2022/08/21 13:47:40;;;;;;;;;;;28.00;80.10;;;;;;5013205;28;19936;-59
2022/08/21 13:50:07;;;;;;;;;;;28.00;80.10;;;;;;5025448;28;20464;-61
2022/08/21 13:52:44;;;;;;;;;;;28.10;80.10;;;;;;5006169;28;19929;-57
2022/08/21 13:55:15;;;;;;;;;;;28.10;80.00;;;;;;5018646;28;19929;-60
2022/08/21 13:57:42;;;;;;;;;;;28.10;79.90;;;;;;5005569;28;19936;-57
2022/08/21 14:00:13;;;;;;;;;;;28.20;79.90;;;;;;5006845;28;19934;-60
2022/08/21 14:02:41;;;;;;;;;;;28.20;79.90;;;;;;5015062;28;19929;-57
2022/08/21 14:05:15;;;;;;;;;;;28.20;79.80;;;;;;5010590;28;20435;-59
2022/08/21 14:07:43;;;;;;;;;;;28.20;79.90;;;;;;5014320;28;19930;-59
2022/08/21 14:10:16;;;;;;;;;;;28.30;79.80;;;;;;4998797;28;19930;-61
2022/08/21 14:12:47;;;;;;;;;;;28.30;79.80;;;;;;5007004;28;19934;-60
2022/08/21 14:15:15;;;;;;;;;;;28.30;79.60;;;;;;5012310;28;20397;-56
2022/08/21 14:17:42;;;;;;;;;;;28.40;79.60;;;;;;5003955;28;19937;-60
2022/08/21 14:20:12;;;;;;;;;;;28.40;79.50;;;;;;5012470;28;19929;-60
2022/08/21 14:22:43;;;;;;;;;;;28.50;79.40;;;;;;5024588;28;19940;-60
2022/08/21 14:25:11;;;;;;;;;;;28.50;79.40;;;;;;5000086;28;19930;-62
2022/08/21 14:27:44;;;;;;;;;;;28.50;79.30;;;;;;5032796;28;19930;-59
2022/08/21 14:30:13;;;;;;;;;;;28.60;79.20;;;;;;5024133;28;19940;-58
2022/08/21 14:32:40;;;;;;;;;;;28.60;79.20;;;;;;5011960;28;20289;-60
2022/08/21 14:35:12;;;;;;;;;;;28.70;79.10;;;;;;5025551;28;19936;-61
2022/08/21 14:37:43;;;;;;;;;;;28.70;79.10;;;;;;4998053;28;20713;-58
2022/08/21 14:40:11;;;;;;;;;;;28.70;78.90;;;;;;5032287;28;19936;-60